sensor_id;sensor_type;location;lat;lon;timestamp;pressure;altitude;pressure_sealevel;temperature;humidity
35331;BME280;21441;52.190;20.910;2023-05-25T00:00:15;100495.41;;;12.78;100.00
35331;BME280;21441;52.190;20.910;2023-05-25T00:03:03;100499.72;;;12.65;100.00
35331;BME280;21441;52.190;20.910;2023-05-25T00:05:30;100490.06;;;12.55;100.00
35331;BME280;21441;52.190;20.910;2023-05-25T00:07:57;100494.47;;;12.48;100.00
35331;BME280;21441;52.190;20.910;2023-05-25T00:10:26;100490.94;;;12.48;100.00
35331;BME280;21441;52.190;20.910;2023-05-25T00:12:53;100492.06;;;12.53;100.00
35331;BME280;21441;52.190;20.910;2023-05-25T00:15:21;100486.00;;;12.59;100.00
35331;BME280;21441;52.190;20.910;2023-05-25T00:17:48;100490.78;;;12.72;100.00
35331;BME280;21441;52.190;20.910;2023-05-25T00:20:15;100490.28;;;12.69;100.00
35331;BME280;21441;52.190;20.910;2023-05-25T00:22:43;100492.97;;;12.69;100.00
35331;BME280;21441;52.190;20.910;2023-05-25T00:25:10;100495.38;;;12.87;100.00
35331;BME280;21441;52.190;20.910;2023-05-25T00:27:39;100500.63;;;12.95;100.00
35331;BME280;21441;52.190;20.910;2023-05-25T00:30:07;100495.06;;;12.82;100.00
35331;BME280;21441;52.190;20.910;2023-05-25T00:32:34;100502.91;;;12.83;100.00
35331;BME280;21441;52.190;20.910;2023-05-25T00:35:01;100496.84;;;12.89;100.00
35331;BME280;21441;52.190;20.910;2023-05-25T00:37:28;100505.59;;;12.83;100.00
35331;BME280;21441;52.190;20.910;2023-05-25T00:39:56;100496.53;;;12.84;100.00
35331;BME280;21441;52.190;20.910;2023-05-25T00:42:23;100497.38;;;12.85;100.00
35331;BME280;21441;52.190;20.910;2023-05-25T00:44:51;100498.16;;;12.70;100.00
35331;BME280;21441;52.190;20.910;2023-05-25T00:47:18;100503.50;;;12.70;100.00
35331;BME280;21441;52.190;20.910;2023-05-25T00:49:46;100501.38;;;12.66;100.00
35331;BME280;21441;52.190;20.910;2023-05-25T00:52:13;100507.59;;;12.81;100.00
35331;BME280;21441;52.190;20.910;2023-05-25T00:54:42;100509.50;;;12.72;100.00
35331;BME280;21441;52.190;20.910;2023-05-25T00:57:13;100518.47;;;12.79;100.00
35331;BME280;21441;52.190;20.910;2023-05-25T00:59:45;100515.28;;;12.61;100.00
35331;BME280;21441;52.190;20.910;2023-05-25T01:02:18;100510.72;;;12.70;100.00
35331;BME280;21441;52.190;20.910;2023-05-25T01:04:49;100507.31;;;12.76;100.00
35331;BME280;21441;52.190;20.910;2023-05-25T01:07:20;100508.63;;;12.57;100.00
35331;BME280;21441;52.190;20.910;2023-05-25T01:09:54;100507.41;;;12.59;100.00
35331;BME280;21441;52.190;20.910;2023-05-25T01:12:23;100511.13;;;12.58;100.00
35331;BME280;21441;52.190;20.910;2023-05-25T01:14:53;100515.03;;;12.71;100.00
35331;BME280;21441;52.190;20.910;2023-05-25T01:17:22;100510.78;;;12.85;100.00
35331;BME280;21441;52.190;20.910;2023-05-25T01:19:50;100519.50;;;12.78;100.00
35331;BME280;21441;52.190;20.910;2023-05-25T01:22:20;100518.69;;;12.78;100.00
35331;BME280;21441;52.190;20.910;2023-05-25T01:24:52;100513.84;;;12.73;100.00
35331;BME280;21441;52.190;20.910;2023-05-25T01:27:23;100516.84;;;12.78;100.00
35331;BME280;21441;52.190;20.910;2023-05-25T01:29:54;100523.56;;;12.74;100.00
35331;BME280;21441;52.190;20.910;2023-05-25T01:32:22;100523.13;;;12.86;100.00
35331;BME280;21441;52.190;20.910;2023-05-25T01:34:50;100516.59;;;12.88;100.00
35331;BME280;21441;52.190;20.910;2023-05-25T01:37:19;100515.22;;;12.92;100.00
35331;BME280;21441;52.190;20.910;2023-05-25T01:39:49;100516.78;;;12.87;100.00
35331;BME280;21441;52.190;20.910;2023-05-25T01:42:16;100512.91;;;12.66;100.00
35331;BME280;21441;52.190;20.910;2023-05-25T01:44:44;100513.13;;;12.79;100.00
35331;BME280;21441;52.190;20.910;2023-05-25T01:47:16;100508.25;;;12.83;100.00
35331;BME280;21441;52.190;20.910;2023-05-25T01:49:54;100520.97;;;12.58;100.00
35331;BME280;21441;52.190;20.910;2023-05-25T01:52:29;100521.47;;;12.62;100.00
35331;BME280;21441;52.190;20.910;2023-05-25T01:55:02;100516.34;;;12.52;100.00
35331;BME280;21441;52.190;20.910;2023-05-25T01:57:32;100511.66;;;12.54;100.00
35331;BME280;21441;52.190;20.910;2023-05-25T02:00:01;100513.03;;;12.50;100.00
35331;BME280;21441;52.190;20.910;2023-05-25T02:02:30;100504.50;;;12.46;100.00
35331;BME280;21441;52.190;20.910;2023-05-25T02:04:59;100512.28;;;12.33;100.00
35331;BME280;21441;52.190;20.910;2023-05-25T02:07:27;100503.19;;;12.42;100.00
35331;BME280;21441;52.190;20.910;2023-05-25T02:09:55;100513.03;;;12.50;100.00
35331;BME280;21441;52.190;20.910;2023-05-25T02:12:22;100505.31;;;12.47;100.00
35331;BME280;21441;52.190;20.910;2023-05-25T02:14:49;100505.84;;;12.42;100.00
35331;BME280;21441;52.190;20.910;2023-05-25T02:17:16;100504.16;;;12.49;100.00
35331;BME280;21441;52.190;20.910;2023-05-25T02:19:44;100502.06;;;12.36;100.00
35331;BME280;21441;52.190;20.910;2023-05-25T02:22:13;100509.75;;;12.31;100.00
35331;BME280;21441;52.190;20.910;2023-05-25T02:24:43;100509.09;;;12.29;100.00
35331;BME280;21441;52.190;20.910;2023-05-25T02:27:11;100513.50;;;12.22;100.00
35331;BME280;21441;52.190;20.910;2023-05-25T02:29:38;100519.00;;;12.21;100.00
35331;BME280;21441;52.190;20.910;2023-05-25T02:32:06;100521.63;;;12.37;100.00
35331;BME280;21441;52.190;20.910;2023-05-25T02:34:33;100530.06;;;12.17;100.00
35331;BME280;21441;52.190;20.910;2023-05-25T02:37:00;100527.56;;;12.16;100.00
35331;BME280;21441;52.190;20.910;2023-05-25T02:39:28;100530.72;;;12.20;100.00
35331;BME280;21441;52.190;20.910;2023-05-25T02:41:56;100516.81;;;12.32;100.00
35331;BME280;21441;52.190;20.910;2023-05-25T02:44:23;100528.59;;;12.46;100.00
35331;BME280;21441;52.190;20.910;2023-05-25T02:46:50;100525.69;;;12.56;100.00
35331;BME280;21441;52.190;20.910;2023-05-25T02:49:17;100540.06;;;12.55;100.00
35331;BME280;21441;52.190;20.910;2023-05-25T02:51:44;100530.50;;;12.61;100.00
35331;BME280;21441;52.190;20.910;2023-05-25T02:54:11;100532.75;;;12.49;100.00
35331;BME280;21441;52.190;20.910;2023-05-25T02:56:38;100518.69;;;12.24;100.00
35331;BME280;21441;52.190;20.910;2023-05-25T02:59:08;100528.09;;;12.11;100.00
35331;BME280;21441;52.190;20.910;2023-05-25T03:01:36;100522.84;;;12.26;100.00
35331;BME280;21441;52.190;20.910;2023-05-25T03:04:05;100522.19;;;12.24;100.00
35331;BME280;21441;52.190;20.910;2023-05-25T03:06:32;100516.53;;;12.19;100.00
35331;BME280;21441;52.190;20.910;2023-05-25T03:09:01;100521.81;;;12.27;100.00
35331;BME280;21441;52.190;20.910;2023-05-25T03:11:29;100528.19;;;12.26;100.00
35331;BME280;21441;52.190;20.910;2023-05-25T03:13:56;100520.44;;;12.39;100.00
35331;BME280;21441;52.190;20.910;2023-05-25T03:16:25;100526.19;;;12.28;100.00
35331;BME280;21441;52.190;20.910;2023-05-25T03:18:52;100535.53;;;12.32;100.00
35331;BME280;21441;52.190;20.910;2023-05-25T03:21:20;100536.66;;;12.38;100.00
35331;BME280;21441;52.190;20.910;2023-05-25T03:23:48;100542.78;;;12.47;100.00
35331;BME280;21441;52.190;20.910;2023-05-25T03:26:15;100544.94;;;12.51;100.00
35331;BME280;21441;52.190;20.910;2023-05-25T03:28:43;100541.84;;;12.39;100.00
35331;BME280;21441;52.190;20.910;2023-05-25T03:31:10;100549.84;;;12.39;100.00
35331;BME280;21441;52.190;20.910;2023-05-25T03:33:40;100554.41;;;12.62;100.00
35331;BME280;21441;52.190;20.910;2023-05-25T03:36:08;100554.31;;;12.78;100.00
35331;BME280;21441;52.190;20.910;2023-05-25T03:38:35;100550.03;;;12.69;100.00
35331;BME280;21441;52.190;20.910;2023-05-25T03:41:03;100555.84;;;12.73;100.00
35331;BME280;21441;52.190;20.910;2023-05-25T03:43:30;100558.31;;;12.83;100.00
35331;BME280;21441;52.190;20.910;2023-05-25T03:45:57;100557.94;;;12.86;100.00
35331;BME280;21441;52.190;20.910;2023-05-25T03:48:24;100554.19;;;12.95;100.00
35331;BME280;21441;52.190;20.910;2023-05-25T03:50:53;100557.56;;;12.89;100.00
35331;BME280;21441;52.190;20.910;2023-05-25T03:53:20;100558.09;;;12.84;100.00
35331;BME280;21441;52.190;20.910;2023-05-25T03:55:47;100547.19;;;12.94;100.00
35331;BME280;21441;52.190;20.910;2023-05-25T03:58:17;100549.06;;;13.08;100.00
35331;BME280;21441;52.190;20.910;2023-05-25T04:00:44;100553.53;;;13.16;100.00
35331;BME280;21441;52.190;20.910;2023-05-25T04:03:13;100551.44;;;13.26;100.00
35331;BME280;21441;52.190;20.910;2023-05-25T04:05:40;100554.19;;;13.18;100.00
35331;BME280;21441;52.190;20.910;2023-05-25T04:08:09;100558.34;;;13.20;100.00
35331;BME280;21441;52.190;20.910;2023-05-25T04:10:36;100552.66;;;13.00;100.00
35331;BME280;21441;52.190;20.910;2023-05-25T04:13:03;100563.06;;;12.95;100.00
35331;BME280;21441;52.190;20.910;2023-05-25T04:15:31;100574.66;;;12.88;100.00
35331;BME280;21441;52.190;20.910;2023-05-25T04:17:59;100576.91;;;13.22;100.00
35331;BME280;21441;52.190;20.910;2023-05-25T04:20:27;100578.84;;;13.13;100.00
35331;BME280;21441;52.190;20.910;2023-05-25T04:22:54;100576.81;;;13.15;100.00
35331;BME280;21441;52.190;20.910;2023-05-25T04:25:23;100586.16;;;13.43;100.00
35331;BME280;21441;52.190;20.910;2023-05-25T04:27:50;100585.00;;;13.37;100.00
35331;BME280;21441;52.190;20.910;2023-05-25T04:30:18;100582.56;;;13.50;100.00
35331;BME280;21441;52.190;20.910;2023-05-25T04:32:45;100574.94;;;13.39;100.00
35331;BME280;21441;52.190;20.910;2023-05-25T04:35:12;100573.03;;;13.48;100.00
35331;BME280;21441;52.190;20.910;2023-05-25T04:37:40;100576.22;;;13.66;100.00
35331;BME280;21441;52.190;20.910;2023-05-25T04:40:08;100576.47;;;13.41;100.00
35331;BME280;21441;52.190;20.910;2023-05-25T04:42:37;100575.16;;;13.37;100.00
35331;BME280;21441;52.190;20.910;2023-05-25T04:45:07;100579.84;;;13.35;100.00
35331;BME280;21441;52.190;20.910;2023-05-25T04:47:35;100584.06;;;13.30;100.00
35331;BME280;21441;52.190;20.910;2023-05-25T04:50:06;100582.56;;;13.50;100.00
35331;BME280;21441;52.190;20.910;2023-05-25T04:52:34;100586.97;;;13.20;100.00
35331;BME280;21441;52.190;20.910;2023-05-25T04:55:01;100582.72;;;13.26;100.00
35331;BME280;21441;52.190;20.910;2023-05-25T04:57:28;100579.53;;;13.30;100.00
35331;BME280;21441;52.190;20.910;2023-05-25T04:59:57;100582.63;;;13.42;100.00
35331;BME280;21441;52.190;20.910;2023-05-25T05:02:25;100589.31;;;13.46;100.00
35331;BME280;21441;52.190;20.910;2023-05-25T05:04:51;100587.78;;;13.44;100.00
35331;BME280;21441;52.190;20.910;2023-05-25T05:07:19;100576.00;;;13.68;100.00
35331;BME280;21441;52.190;20.910;2023-05-25T05:09:46;100587.59;;;13.68;100.00
35331;BME280;21441;52.190;20.910;2023-05-25T05:12:14;100587.09;;;13.27;100.00
35331;BME280;21441;52.190;20.910;2023-05-25T05:14:41;100587.16;;;13.18;100.00
35331;BME280;21441;52.190;20.910;2023-05-25T05:17:09;100587.09;;;13.04;100.00
35331;BME280;21441;52.190;20.910;2023-05-25T05:19:37;100587.16;;;13.18;100.00
35331;BME280;21441;52.190;20.910;2023-05-25T05:22:04;100592.34;;;13.20;100.00
35331;BME280;21441;52.190;20.910;2023-05-25T05:24:33;100594.91;;;13.13;100.00
35331;BME280;21441;52.190;20.910;2023-05-25T05:27:00;100592.75;;;13.32;100.00
35331;BME280;21441;52.190;20.910;2023-05-25T05:29:28;100599.00;;;13.24;100.00
35331;BME280;21441;52.190;20.910;2023-05-25T05:31:55;100590.09;;;13.09;100.00
35331;BME280;21441;52.190;20.910;2023-05-25T05:34:25;100597.31;;;13.31;100.00
35331;BME280;21441;52.190;20.910;2023-05-25T05:36:52;100600.19;;;13.21;100.00
35331;BME280;21441;52.190;20.910;2023-05-25T05:39:19;100596.66;;;13.29;100.00
35331;BME280;21441;52.190;20.910;2023-05-25T05:41:46;100597.63;;;13.05;100.00
35331;BME280;21441;52.190;20.910;2023-05-25T05:44:13;100612.56;;;12.99;100.00
35331;BME280;21441;52.190;20.910;2023-05-25T05:46:41;100609.06;;;13.22;100.00
35331;BME280;21441;52.190;20.910;2023-05-25T05:49:08;100614.31;;;13.38;100.00
35331;BME280;21441;52.190;20.910;2023-05-25T05:51:36;100605.66;;;13.51;100.00
35331;BME280;21441;52.190;20.910;2023-05-25T05:54:04;100610.97;;;13.36;100.00
35331;BME280;21441;52.190;20.910;2023-05-25T05:56:31;100591.94;;;13.31;100.00
35331;BME280;21441;52.190;20.910;2023-05-25T05:58:58;100611.50;;;13.09;100.00
35331;BME280;21441;52.190;20.910;2023-05-25T06:01:25;100616.56;;;13.27;100.00
35331;BME280;21441;52.190;20.910;2023-05-25T06:03:52;100614.19;;;13.32;100.00
35331;BME280;21441;52.190;20.910;2023-05-25T06:06:20;100620.06;;;13.27;100.00
35331;BME280;21441;52.190;20.910;2023-05-25T06:08:49;100623.38;;;13.37;100.00
35331;BME280;21441;52.190;20.910;2023-05-25T06:11:16;100623.38;;;13.75;100.00
35331;BME280;21441;52.190;20.910;2023-05-25T06:13:43;100629.84;;;13.96;100.00
35331;BME280;21441;52.190;20.910;2023-05-25T06:16:10;100630.34;;;13.99;100.00
35331;BME280;21441;52.190;20.910;2023-05-25T06:18:37;100643.47;;;13.94;100.00
35331;BME280;21441;52.190;20.910;2023-05-25T06:21:05;100645.31;;;14.09;100.00
35331;BME280;21441;52.190;20.910;2023-05-25T06:23:32;100646.78;;;14.11;100.00
35331;BME280;21441;52.190;20.910;2023-05-25T06:26:03;100650.31;;;13.97;100.00
35331;BME280;21441;52.190;20.910;2023-05-25T06:28:30;100653.91;;;13.89;100.00
35331;BME280;21441;52.190;20.910;2023-05-25T06:30:58;100649.25;;;13.83;100.00
35331;BME280;21441;52.190;20.910;2023-05-25T06:33:25;100639.66;;;13.89;100.00
35331;BME280;21441;52.190;20.910;2023-05-25T06:35:52;100649.09;;;13.99;100.00
35331;BME280;21441;52.190;20.910;2023-05-25T06:38:21;100654.38;;;13.93;100.00
35331;BME280;21441;52.190;20.910;2023-05-25T06:40:48;100661.00;;;13.82;100.00
35331;BME280;21441;52.190;20.910;2023-05-25T06:43:17;100656.47;;;13.82;100.00
35331;BME280;21441;52.190;20.910;2023-05-25T06:45:44;100657.28;;;13.68;100.00
35331;BME280;21441;52.190;20.910;2023-05-25T06:48:11;100651.31;;;13.96;100.00
35331;BME280;21441;52.190;20.910;2023-05-25T06:50:38;100652.88;;;13.75;100.00
35331;BME280;21441;52.190;20.910;2023-05-25T06:53:06;100657.81;;;14.01;100.00
35331;BME280;21441;52.190;20.910;2023-05-25T06:55:35;100663.19;;;14.16;100.00
35331;BME280;21441;52.190;20.910;2023-05-25T06:58:02;100658.72;;;14.09;100.00
35331;BME280;21441;52.190;20.910;2023-05-25T07:00:31;100660.31;;;14.18;100.00
35331;BME280;21441;52.190;20.910;2023-05-25T07:02:58;100666.41;;;14.41;100.00
35331;BME280;21441;52.190;20.910;2023-05-25T07:05:26;100659.69;;;14.60;100.00
35331;BME280;21441;52.190;20.910;2023-05-25T07:07:53;100660.13;;;14.49;100.00
35331;BME280;21441;52.190;20.910;2023-05-25T07:10:21;100665.41;;;14.28;100.00
35331;BME280;21441;52.190;20.910;2023-05-25T07:12:48;100655.78;;;14.33;100.00
35331;BME280;21441;52.190;20.910;2023-05-25T07:15:15;100666.72;;;14.32;100.00
35331;BME280;21441;52.190;20.910;2023-05-25T07:17:44;100657.91;;;14.08;100.00
35331;BME280;21441;52.190;20.910;2023-05-25T07:20:12;100659.09;;;13.91;100.00
35331;BME280;21441;52.190;20.910;2023-05-25T07:22:39;100660.84;;;13.83;100.00
35331;BME280;21441;52.190;20.910;2023-05-25T07:25:07;100660.94;;;13.90;100.00
35331;BME280;21441;52.190;20.910;2023-05-25T07:27:34;100655.06;;;13.72;100.00
35331;BME280;21441;52.190;20.910;2023-05-25T07:30:02;100660.63;;;13.85;100.00
35331;BME280;21441;52.190;20.910;2023-05-25T07:32:29;100654.00;;;13.96;100.00
35331;BME280;21441;52.190;20.910;2023-05-25T07:34:58;100659.00;;;14.29;100.00
35331;BME280;21441;52.190;20.910;2023-05-25T07:37:25;100662.63;;;14.36;100.00
35331;BME280;21441;52.190;20.910;2023-05-25T07:39:53;100660.50;;;14.61;100.00
35331;BME280;21441;52.190;20.910;2023-05-25T07:42:19;100655.00;;;14.84;100.00
35331;BME280;21441;52.190;20.910;2023-05-25T07:44:47;100667.56;;;14.98;100.00
35331;BME280;21441;52.190;20.910;2023-05-25T07:47:14;100664.41;;;15.31;100.00
35331;BME280;21441;52.190;20.910;2023-05-25T07:49:41;100659.72;;;15.40;100.00
35331;BME280;21441;52.190;20.910;2023-05-25T07:52:10;100662.09;;;15.06;100.00
35331;BME280;21441;52.190;20.910;2023-05-25T07:54:38;100667.09;;;15.31;100.00
35331;BME280;21441;52.190;20.910;2023-05-25T07:57:05;100656.47;;;15.44;100.00
35331;BME280;21441;52.190;20.910;2023-05-25T07:59:32;100660.53;;;15.62;100.00
35331;BME280;21441;52.190;20.910;2023-05-25T08:02:00;100658.88;;;15.82;100.00
35331;BME280;21441;52.190;20.910;2023-05-25T08:04:27;100663.06;;;15.92;100.00
35331;BME280;21441;52.190;20.910;2023-05-25T08:06:54;100665.06;;;15.83;100.00
35331;BME280;21441;52.190;20.910;2023-05-25T08:09:23;100668.75;;;16.03;100.00
35331;BME280;21441;52.190;20.910;2023-05-25T08:11:50;100666.16;;;16.52;100.00
35331;BME280;21441;52.190;20.910;2023-05-25T08:14:17;100668.28;;;16.28;100.00
35331;BME280;21441;52.190;20.910;2023-05-25T08:16:45;100668.88;;;16.23;100.00
35331;BME280;21441;52.190;20.910;2023-05-25T08:19:12;100670.16;;;15.71;100.00
35331;BME280;21441;52.190;20.910;2023-05-25T08:21:39;100661.50;;;16.04;100.00
35331;BME280;21441;52.190;20.910;2023-05-25T08:24:06;100661.63;;;16.65;100.00
35331;BME280;21441;52.190;20.910;2023-05-25T08:26:35;100654.72;;;16.91;100.00
35331;BME280;21441;52.190;20.910;2023-05-25T08:29:03;100667.22;;;16.64;100.00
35331;BME280;21441;52.190;20.910;2023-05-25T08:31:31;100672.03;;;16.27;100.00
35331;BME280;21441;52.190;20.910;2023-05-25T08:33:58;100661.69;;;16.02;100.00
35331;BME280;21441;52.190;20.910;2023-05-25T08:36:26;100660.91;;;16.43;100.00
35331;BME280;21441;52.190;20.910;2023-05-25T08:38:53;100664.94;;;16.61;100.00
35331;BME280;21441;52.190;20.910;2023-05-25T08:41:20;100659.19;;;16.77;100.00
35331;BME280;21441;52.190;20.910;2023-05-25T08:43:49;100665.31;;;16.16;100.00
35331;BME280;21441;52.190;20.910;2023-05-25T08:46:27;100666.06;;;16.03;100.00
35331;BME280;21441;52.190;20.910;2023-05-25T08:48:58;100668.03;;;16.16;100.00
35331;BME280;21441;52.190;20.910;2023-05-25T08:51:28;100670.31;;;15.69;100.00
35331;BME280;21441;52.190;20.910;2023-05-25T08:54:00;100674.75;;;15.56;100.00
35331;BME280;21441;52.190;20.910;2023-05-25T08:56:33;100674.88;;;15.69;100.00
35331;BME280;21441;52.190;20.910;2023-05-25T08:59:10;100673.41;;;15.66;100.00
35331;BME280;21441;52.190;20.910;2023-05-25T09:01:43;100677.47;;;15.77;100.00
35331;BME280;21441;52.190;20.910;2023-05-25T09:04:12;100671.06;;;15.57;100.00
35331;BME280;21441;52.190;20.910;2023-05-25T09:06:39;100672.00;;;15.92;100.00
35331;BME280;21441;52.190;20.910;2023-05-25T09:09:07;100672.56;;;16.16;100.00
35331;BME280;21441;52.190;20.910;2023-05-25T09:11:35;100681.03;;;15.84;100.00
35331;BME280;21441;52.190;20.910;2023-05-25T09:14:02;100680.59;;;16.09;100.00
35331;BME280;21441;52.190;20.910;2023-05-25T09:16:30;100671.09;;;16.48;100.00
35331;BME280;21441;52.190;20.910;2023-05-25T09:18:58;100673.31;;;16.38;100.00
35331;BME280;21441;52.190;20.910;2023-05-25T09:21:25;100667.59;;;16.54;100.00
35331;BME280;21441;52.190;20.910;2023-05-25T09:23:52;100679.38;;;16.53;100.00
35331;BME280;21441;52.190;20.910;2023-05-25T09:26:20;100669.28;;;16.20;100.00
35331;BME280;21441;52.190;20.910;2023-05-25T09:28:47;100679.47;;;16.25;100.00
35331;BME280;21441;52.190;20.910;2023-05-25T09:31:14;100685.38;;;16.48;100.00
35331;BME280;21441;52.190;20.910;2023-05-25T09:33:44;100676.56;;;16.68;100.00
35331;BME280;21441;52.190;20.910;2023-05-25T09:36:12;100680.22;;;16.88;100.00
35331;BME280;21441;52.190;20.910;2023-05-25T09:38:40;100674.41;;;16.85;100.00
35331;BME280;21441;52.190;20.910;2023-05-25T09:41:08;100682.25;;;16.80;100.00
35331;BME280;21441;52.190;20.910;2023-05-25T09:43:35;100681.03;;;16.47;100.00
35331;BME280;21441;52.190;20.910;2023-05-25T09:46:02;100680.84;;;16.49;100.00
35331;BME280;21441;52.190;20.910;2023-05-25T09:48:30;100682.28;;;16.45;100.00
35331;BME280;21441;52.190;20.910;2023-05-25T09:50:58;100680.09;;;16.75;100.00
35331;BME280;21441;52.190;20.910;2023-05-25T09:53:26;100685.38;;;16.90;100.00
35331;BME280;21441;52.190;20.910;2023-05-25T09:55:53;100689.28;;;17.56;100.00
35331;BME280;21441;52.190;20.910;2023-05-25T09:58:21;100683.69;;;17.57;100.00
35331;BME280;21441;52.190;20.910;2023-05-25T10:00:51;100682.88;;;17.70;100.00
35331;BME280;21441;52.190;20.910;2023-05-25T10:03:19;100687.19;;;18.24;100.00
35331;BME280;21441;52.190;20.910;2023-05-25T10:05:46;100685.56;;;18.03;100.00
35331;BME280;21441;52.190;20.910;2023-05-25T10:08:16;100685.34;;;18.25;100.00
35331;BME280;21441;52.190;20.910;2023-05-25T10:10:47;100679.03;;;18.51;100.00
35331;BME280;21441;52.190;20.910;2023-05-25T10:13:20;100679.75;;;18.85;100.00
35331;BME280;21441;52.190;20.910;2023-05-25T10:15:51;100674.78;;;19.20;100.00
35331;BME280;21441;52.190;20.910;2023-05-25T10:18:23;100673.09;;;20.08;100.00
35331;BME280;21441;52.190;20.910;2023-05-25T10:20:55;100666.28;;;20.79;91.95
35331;BME280;21441;52.190;20.910;2023-05-25T10:23:28;100662.06;;;21.43;85.61
35331;BME280;21441;52.190;20.910;2023-05-25T10:25:59;100647.88;;;20.99;83.78
35331;BME280;21441;52.190;20.910;2023-05-25T10:28:32;100645.44;;;20.61;84.28
35331;BME280;21441;52.190;20.910;2023-05-25T10:31:02;100652.81;;;21.02;82.49
35331;BME280;21441;52.190;20.910;2023-05-25T10:33:30;100641.56;;;21.71;77.56
35331;BME280;21441;52.190;20.910;2023-05-25T10:35:58;100648.78;;;21.89;71.89
35331;BME280;21441;52.190;20.910;2023-05-25T10:38:29;100639.22;;;21.98;71.85
35331;BME280;21441;52.190;20.910;2023-05-25T10:40:58;100638.38;;;22.33;69.27
35331;BME280;21441;52.190;20.910;2023-05-25T10:43:26;100635.59;;;22.57;64.62
35331;BME280;21441;52.190;20.910;2023-05-25T10:45:53;100629.38;;;21.50;70.50
35331;BME280;21441;52.190;20.910;2023-05-25T10:48:21;100634.03;;;21.85;69.07
35331;BME280;21441;52.190;20.910;2023-05-25T10:50:49;100622.00;;;22.57;64.50
35331;BME280;21441;52.190;20.910;2023-05-25T10:53:19;100621.69;;;23.44;62.67
35331;BME280;21441;52.190;20.910;2023-05-25T10:56:01;100636.00;;;22.77;63.34
35331;BME280;21441;52.190;20.910;2023-05-25T10:58:29;100630.41;;;22.55;61.80
35331;BME280;21441;52.190;20.910;2023-05-25T11:00:57;100635.88;;;22.72;62.06
35331;BME280;21441;52.190;20.910;2023-05-25T11:03:47;100629.03;;;22.70;61.73
35331;BME280;21441;52.190;20.910;2023-05-25T11:06:15;100636.88;;;23.40;58.77
35331;BME280;21441;52.190;20.910;2023-05-25T11:08:52;100627.59;;;23.36;56.71
35331;BME280;21441;52.190;20.910;2023-05-25T11:11:21;100627.13;;;22.41;60.40
35331;BME280;21441;52.190;20.910;2023-05-25T11:14:19;100630.16;;;22.85;59.88
35331;BME280;21441;52.190;20.910;2023-05-25T11:17:03;100628.88;;;24.01;56.97
35331;BME280;21441;52.190;20.910;2023-05-25T11:19:40;100622.59;;;24.62;53.74
35331;BME280;21441;52.190;20.910;2023-05-25T11:22:14;100610.69;;;24.07;54.12
35331;BME280;21441;52.190;20.910;2023-05-25T11:24:42;100621.75;;;22.87;56.72
35331;BME280;21441;52.190;20.910;2023-05-25T11:27:12;100616.97;;;24.07;55.43
35331;BME280;21441;52.190;20.910;2023-05-25T11:29:39;100620.53;;;24.74;52.53
35331;BME280;21441;52.190;20.910;2023-05-25T11:32:11;100610.63;;;24.90;51.03
35331;BME280;21441;52.190;20.910;2023-05-25T11:34:39;100618.56;;;23.69;54.46
35331;BME280;21441;52.190;20.910;2023-05-25T11:37:12;100620.56;;;23.23;56.76
35331;BME280;21441;52.190;20.910;2023-05-25T11:39:42;100615.09;;;23.40;57.24
35331;BME280;21441;52.190;20.910;2023-05-25T11:42:13;100607.63;;;24.91;53.57
35331;BME280;21441;52.190;20.910;2023-05-25T11:44:41;100609.66;;;25.66;51.51
35331;BME280;21441;52.190;20.910;2023-05-25T11:47:09;100606.81;;;24.03;53.60
35331;BME280;21441;52.190;20.910;2023-05-25T11:49:39;100608.44;;;24.43;53.00
35331;BME280;21441;52.190;20.910;2023-05-25T11:52:08;100605.47;;;25.53;51.88
35331;BME280;21441;52.190;20.910;2023-05-25T11:54:36;100594.66;;;26.11;49.67
35331;BME280;21441;52.190;20.910;2023-05-25T11:57:14;100601.38;;;26.51;49.41
35331;BME280;21441;52.190;20.910;2023-05-25T11:59:46;100593.38;;;27.23;47.95
35331;BME280;21441;52.190;20.910;2023-05-25T12:02:14;100596.03;;;26.82;47.03
35331;BME280;21441;52.190;20.910;2023-05-25T12:04:51;100591.50;;;25.17;50.94
35331;BME280;21441;52.190;20.910;2023-05-25T12:07:19;100590.88;;;25.74;50.23
35331;BME280;21441;52.190;20.910;2023-05-25T12:09:47;100584.91;;;26.35;48.88
35331;BME280;21441;52.190;20.910;2023-05-25T12:12:15;100578.56;;;27.34;47.84
35331;BME280;21441;52.190;20.910;2023-05-25T12:14:46;100582.63;;;27.57;46.68
35331;BME280;21441;52.190;20.910;2023-05-25T12:17:13;100576.84;;;28.00;45.28
35331;BME280;21441;52.190;20.910;2023-05-25T12:19:40;100574.91;;;27.95;44.75
35331;BME280;21441;52.190;20.910;2023-05-25T12:22:08;100583.13;;;26.67;46.39
35331;BME280;21441;52.190;20.910;2023-05-25T12:24:35;100576.84;;;26.71;46.58
35331;BME280;21441;52.190;20.910;2023-05-25T12:27:03;100575.22;;;26.86;47.49
35331;BME280;21441;52.190;20.910;2023-05-25T12:29:44;100572.72;;;27.92;45.39
35331;BME280;21441;52.190;20.910;2023-05-25T12:32:11;100570.84;;;26.80;47.24
35331;BME280;21441;52.190;20.910;2023-05-25T12:34:38;100574.25;;;25.44;50.52
35331;BME280;21441;52.190;20.910;2023-05-25T12:37:16;100574.56;;;25.47;50.14
35331;BME280;21441;52.190;20.910;2023-05-25T12:39:43;100567.19;;;26.48;48.71